Southern Mariner — CFG2618 — position and weather

sailwx.info

Track history (hours):
 
Tides and Currents Weather Stations Pressure Air Temp Water Temp Dewpoint Dewpoint Depression Visibility Wind Speed Wind Dir Waves Ship Positions

Southern Mariner

Last reported at 2014-Jul-28 20:16 UTC. Time now 2014-Aug-01 01:51 UTC.
Position N 47°36' W 052°38'.

Length 20 m.

Type: Fishing. MMSI: 316004790.

Date/timePositionNaut miles runAvg speedWind from/ knotsBaromVisibWave heightAir tempDewpointWater temp
2014-Jul-28 20:16N 47°36' W 052°38'3 4.7
2014-Jul-28 19:33N 47°34' W 052°42'0 0.0
2014-Jul-28 18:31N 47°34' W 052°42'0 0.0
2014-Jul-28 17:32N 47°34' W 052°42'0 0.0
2014-Jul-28 16:32N 47°34' W 052°42'0 0.0
2014-Jul-28 15:32N 47°34' W 052°42'0 0.0
2014-Jul-28 14:32N 47°34' W 052°42'0 0.0
2014-Jul-28 13:32N 47°34' W 052°42'0 0.1
2014-Jul-28 12:20N 47°34' W 052°41'0 0.0
2014-Jul-28 11:20N 47°34' W 052°41'0 0.0
2014-Jul-28 10:23N 47°34' W 052°41'0 0.0
2014-Jul-28 09:30N 47°34' W 052°41'0 0.0
2014-Jul-28 08:30N 47°34' W 052°41'0 0.0
2014-Jul-28 07:30N 47°34' W 052°41'0 0.0
2014-Jul-28 06:21N 47°34' W 052°41'0 0.0
2014-Jul-28 05:30N 47°34' W 052°41'0 0.0
2014-Jul-28 04:27N 47°34' W 052°41'0 0.0
2014-Jul-28 03:33N 47°34' W 052°41'0 0.0
2014-Jul-28 02:33N 47°34' W 052°41'0 0.0
2014-Jul-28 01:33N 47°34' W 052°41'0 0.0
2014-Jul-28 00:30N 47°34' W 052°41'0 0.0
2014-Jul-27 23:30N 47°34' W 052°41'4 3.7
2014-Jul-27 22:33N 47°32' W 052°37'8 7.3
2014-Jul-27 21:26N 47°24' W 052°38'  
2014-Jul-23 00:31N 47°26' W 052°37'7 7.1
2014-Jul-22 23:31N 47°33' W 052°38'3 2.8
2014-Jul-22 22:28N 47°34' W 052°42'0 0.0
2014-Jul-22 21:25N 47°34' W 052°42'0 0.0
2014-Jul-22 20:31N 47°34' W 052°42'0 0.0
2014-Jul-22 19:10N 47°34' W 052°42'0 0.0
2014-Jul-22 18:25N 47°34' W 052°42'0 0.0
2014-Jul-22 17:31N 47°34' W 052°42'2 2.5
2014-Jul-22 16:32N 47°34' W 052°38'13 0.3
2014-Jul-21 00:28N 47°39' W 052°21'7 7.1
2014-Jul-20 23:29N 47°37' W 052°30'8 6.8
2014-Jul-20 22:16N 47°34' W 052°42'0 0.0
2014-Jul-20 21:28N 47°34' W 052°42'0 0.0
2014-Jul-20 20:28N 47°34' W 052°42'0 0.0
2014-Jul-20 19:28N 47°34' W 052°42'0 0.0
2014-Jul-20 18:28N 47°34' W 052°42'0 0.0
2014-Jul-20 17:28N 47°34' W 052°42'0 0.0
2014-Jul-20 16:28N 47°34' W 052°42'0 0.0
2014-Jul-20 15:28N 47°34' W 052°42'0 0.0
2014-Jul-20 14:28N 47°34' W 052°42'0 0.0
2014-Jul-20 13:28N 47°34' W 052°42'0 0.0
2014-Jul-20 12:28N 47°34' W 052°42'0 0.0
2014-Jul-20 11:28N 47°34' W 052°42'0 0.0
2014-Jul-20 10:28N 47°34' W 052°42'0 0.0
2014-Jul-20 09:28N 47°34' W 052°42'0 0.0
2014-Jul-20 08:28N 47°34' W 052°42'0 0.0
2014-Jul-20 07:28N 47°34' W 052°42'0 0.0
2014-Jul-20 06:28N 47°34' W 052°42'0 0.0
2014-Jul-20 05:28N 47°34' W 052°42'0 0.0
2014-Jul-20 04:28N 47°34' W 052°42'0 0.0
2014-Jul-20 03:28N 47°34' W 052°42'0 0.0
2014-Jul-20 02:28N 47°34' W 052°42'0 0.0
2014-Jul-20 01:25N 47°34' W 052°42'0 0.0
2014-Jul-20 00:28N 47°34' W 052°42'0 0.0
2014-Jul-19 23:28N 47°34' W 052°42'0 0.0
2014-Jul-19 22:28N 47°34' W 052°42'0 0.0
2014-Jul-19 21:31N 47°34' W 052°42'0 0.0
2014-Jul-19 20:28N 47°34' W 052°42'3 3.3
2014-Jul-19 19:28N 47°34' W 052°37'3 3.5
2014-Jul-19 18:33N 47°34' W 052°42'0 0.0
2014-Jul-19 17:33N 47°34' W 052°42'0 0.0
2014-Jul-19 16:33N 47°34' W 052°42'0 0.0
2014-Jul-19 15:33N 47°34' W 052°42'0 0.0
2014-Jul-19 14:30N 47°34' W 052°42'0 0.0
2014-Jul-19 13:30N 47°34' W 052°42'0 0.0
2014-Jul-19 12:33N 47°34' W 052°42'0 0.0
2014-Jul-19 11:33N 47°34' W 052°42'0 0.0
2014-Jul-19 10:33N 47°34' W 052°42'2 1.6
2014-Jul-19 09:16N 47°34' W 052°39'6 7.7
2014-Jul-19 08:28N 47°34' W 052°29'9 7.8
2014-Jul-19 07:18N 47°34' W 052°16'  
Track history (hours):
 
Tides and Currents Weather Stations Pressure Air Temp Water Temp Dewpoint Dewpoint Depression Visibility Wind Speed Wind Dir Waves Ship Positions

Southern Mariner

Last reported at 2014-Jul-28 20:16 UTC. Time now 2014-Aug-01 01:51 UTC.
Position N 47°36' W 052°38'.

Length 20 m.

Type: Fishing. MMSI: 316004790.

Date/timePositionNaut miles runAvg speedWind from/ knotsBaromVisibWave heightAir tempDewpointWater temp
2014-Jul-28 20:16N 47°36' W 052°38'3 4.7
2014-Jul-28 19:33N 47°34' W 052°42'0 0.0
2014-Jul-28 18:31N 47°34' W 052°42'0 0.0
2014-Jul-28 17:32N 47°34' W 052°42'0 0.0
2014-Jul-28 16:32N 47°34' W 052°42'0 0.0
2014-Jul-28 15:32N 47°34' W 052°42'0 0.0
2014-Jul-28 14:32N 47°34' W 052°42'0 0.0
2014-Jul-28 13:32N 47°34' W 052°42'0 0.1
2014-Jul-28 12:20N 47°34' W 052°41'0 0.0
2014-Jul-28 11:20N 47°34' W 052°41'0 0.0
2014-Jul-28 10:23N 47°34' W 052°41'0 0.0
2014-Jul-28 09:30N 47°34' W 052°41'0 0.0
2014-Jul-28 08:30N 47°34' W 052°41'0 0.0
2014-Jul-28 07:30N 47°34' W 052°41'0 0.0
2014-Jul-28 06:21N 47°34' W 052°41'0 0.0
2014-Jul-28 05:30N 47°34' W 052°41'0 0.0
2014-Jul-28 04:27N 47°34' W 052°41'0 0.0
2014-Jul-28 03:33N 47°34' W 052°41'0 0.0
2014-Jul-28 02:33N 47°34' W 052°41'0 0.0
2014-Jul-28 01:33N 47°34' W 052°41'0 0.0
2014-Jul-28 00:30N 47°34' W 052°41'0 0.0
2014-Jul-27 23:30N 47°34' W 052°41'4 3.7
2014-Jul-27 22:33N 47°32' W 052°37'8 7.3
2014-Jul-27 21:26N 47°24' W 052°38'  
2014-Jul-23 00:31N 47°26' W 052°37'7 7.1
2014-Jul-22 23:31N 47°33' W 052°38'3 2.8
2014-Jul-22 22:28N 47°34' W 052°42'0 0.0
2014-Jul-22 21:25N 47°34' W 052°42'0 0.0
2014-Jul-22 20:31N 47°34' W 052°42'0 0.0
2014-Jul-22 19:10N 47°34' W 052°42'0 0.0
2014-Jul-22 18:25N 47°34' W 052°42'0 0.0
2014-Jul-22 17:31N 47°34' W 052°42'2 2.5
2014-Jul-22 16:32N 47°34' W 052°38'13 0.3
2014-Jul-21 00:28N 47°39' W 052°21'7 7.1
2014-Jul-20 23:29N 47°37' W 052°30'8 6.8
2014-Jul-20 22:16N 47°34' W 052°42'0 0.0
2014-Jul-20 21:28N 47°34' W 052°42'0 0.0
2014-Jul-20 20:28N 47°34' W 052°42'0 0.0
2014-Jul-20 19:28N 47°34' W 052°42'0 0.0
2014-Jul-20 18:28N 47°34' W 052°42'0 0.0
2014-Jul-20 17:28N 47°34' W 052°42'0 0.0
2014-Jul-20 16:28N 47°34' W 052°42'0 0.0
2014-Jul-20 15:28N 47°34' W 052°42'0 0.0
2014-Jul-20 14:28N 47°34' W 052°42'0 0.0
2014-Jul-20 13:28N 47°34' W 052°42'0 0.0
2014-Jul-20 12:28N 47°34' W 052°42'0 0.0
2014-Jul-20 11:28N 47°34' W 052°42'0 0.0
2014-Jul-20 10:28N 47°34' W 052°42'0 0.0
2014-Jul-20 09:28N 47°34' W 052°42'0 0.0
2014-Jul-20 08:28N 47°34' W 052°42'0 0.0
2014-Jul-20 07:28N 47°34' W 052°42'0 0.0
2014-Jul-20 06:28N 47°34' W 052°42'0 0.0
2014-Jul-20 05:28N 47°34' W 052°42'0 0.0
2014-Jul-20 04:28N 47°34' W 052°42'0 0.0
2014-Jul-20 03:28N 47°34' W 052°42'0 0.0
2014-Jul-20 02:28N 47°34' W 052°42'0 0.0
2014-Jul-20 01:25N 47°34' W 052°42'0 0.0
2014-Jul-20 00:28N 47°34' W 052°42'0 0.0
2014-Jul-19 23:28N 47°34' W 052°42'0 0.0
2014-Jul-19 22:28N 47°34' W 052°42'0 0.0
2014-Jul-19 21:31N 47°34' W 052°42'0 0.0
2014-Jul-19 20:28N 47°34' W 052°42'3 3.3
2014-Jul-19 19:28N 47°34' W 052°37'3 3.5
2014-Jul-19 18:33N 47°34' W 052°42'0 0.0
2014-Jul-19 17:33N 47°34' W 052°42'0 0.0
2014-Jul-19 16:33N 47°34' W 052°42'0 0.0
2014-Jul-19 15:33N 47°34' W 052°42'0 0.0
2014-Jul-19 14:30N 47°34' W 052°42'0 0.0
2014-Jul-19 13:30N 47°34' W 052°42'0 0.0
2014-Jul-19 12:33N 47°34' W 052°42'0 0.0
2014-Jul-19 11:33N 47°34' W 052°42'0 0.0
2014-Jul-19 10:33N 47°34' W 052°42'2 1.6
2014-Jul-19 09:16N 47°34' W 052°39'6 7.7
2014-Jul-19 08:28N 47°34' W 052°29'9 7.8
2014-Jul-19 07:18N 47°34' W 052°16'  

Dump ship's entire track history